sensor_id;sensor_type;location;lat;lon;timestamp;pressure;altitude;pressure_sealevel;temperature;humidity
64402;BME280;50724;42.376;23.768;2023-09-08T00:02:04;93749.19;;;17.39;86.02
64402;BME280;50724;42.376;23.768;2023-09-08T00:05:04;93754.84;;;17.36;87.03
64402;BME280;50724;42.376;23.768;2023-09-08T00:08:06;93756.09;;;17.40;87.53
64402;BME280;50724;42.376;23.768;2023-09-08T00:11:06;93761.22;;;17.20;88.50
64402;BME280;50724;42.376;23.768;2023-09-08T00:14:07;93753.78;;;17.30;88.73
64402;BME280;50724;42.376;23.768;2023-09-08T00:17:08;93758.44;;;17.07;89.00
64402;BME280;50724;42.376;23.768;2023-09-08T00:20:08;93760.66;;;17.03;89.94
64402;BME280;50724;42.376;23.768;2023-09-08T00:23:09;93756.03;;;17.12;90.11
64402;BME280;50724;42.376;23.768;2023-09-08T00:26:09;93751.94;;;17.09;89.47
64402;BME280;50724;42.376;23.768;2023-09-08T00:29:09;93761.97;;;17.14;89.23
64402;BME280;50724;42.376;23.768;2023-09-08T00:32:10;93758.06;;;17.10;90.07
64402;BME280;50724;42.376;23.768;2023-09-08T00:35:11;93755.72;;;17.22;88.78
64402;BME280;50724;42.376;23.768;2023-09-08T00:38:13;93755.41;;;17.10;89.83
64402;BME280;50724;42.376;23.768;2023-09-08T00:41:13;93751.53;;;17.06;90.46
64402;BME280;50724;42.376;23.768;2023-09-08T00:44:14;93744.59;;;17.05;89.41
64402;BME280;50724;42.376;23.768;2023-09-08T00:47:14;93745.78;;;17.02;89.80
64402;BME280;50724;42.376;23.768;2023-09-08T00:50:15;93740.91;;;16.99;89.67
64402;BME280;50724;42.376;23.768;2023-09-08T00:53:15;93734.78;;;16.99;89.32
64402;BME280;50724;42.376;23.768;2023-09-08T00:56:16;93730.81;;;16.88;89.68
64402;BME280;50724;42.376;23.768;2023-09-08T00:59:16;93726.28;;;16.82;87.99
64402;BME280;50724;42.376;23.768;2023-09-08T01:02:17;93721.41;;;16.65;88.28
64402;BME280;50724;42.376;23.768;2023-09-08T01:05:17;93726.97;;;16.70;87.75
64402;BME280;50724;42.376;23.768;2023-09-08T01:08:18;93713.38;;;16.52;88.20
64402;BME280;50724;42.376;23.768;2023-09-08T01:11:19;93711.44;;;16.45;86.37
64402;BME280;50724;42.376;23.768;2023-09-08T01:14:20;93711.25;;;16.47;84.62
64402;BME280;50724;42.376;23.768;2023-09-08T01:17:21;93706.97;;;16.46;83.96
64402;BME280;50724;42.376;23.768;2023-09-08T01:20:27;93696.59;;;16.44;83.26
64402;BME280;50724;42.376;23.768;2023-09-08T01:23:40;93699.25;;;16.44;82.96
64402;BME280;50724;42.376;23.768;2023-09-08T01:26:47;93692.78;;;16.47;82.87
64402;BME280;50724;42.376;23.768;2023-09-08T01:29:49;93696.03;;;16.49;82.20
64402;BME280;50724;42.376;23.768;2023-09-08T01:32:52;93693.13;;;16.59;81.82
64402;BME280;50724;42.376;23.768;2023-09-08T01:35:54;93702.06;;;16.43;81.90
64402;BME280;50724;42.376;23.768;2023-09-08T01:38:55;93692.44;;;16.35;81.97
64402;BME280;50724;42.376;23.768;2023-09-08T01:41:55;93689.44;;;16.38;80.91
64402;BME280;50724;42.376;23.768;2023-09-08T01:44:56;93682.50;;;16.37;80.98
64402;BME280;50724;42.376;23.768;2023-09-08T01:47:56;93677.84;;;16.39;79.82
64402;BME280;50724;42.376;23.768;2023-09-08T01:50:56;93679.72;;;16.24;80.76
64402;BME280;50724;42.376;23.768;2023-09-08T01:53:57;93675.44;;;16.23;80.67
64402;BME280;50724;42.376;23.768;2023-09-08T01:57:06;93672.19;;;16.21;80.35
64402;BME280;50724;42.376;23.768;2023-09-08T02:00:06;93677.56;;;16.13;82.30
64402;BME280;50724;42.376;23.768;2023-09-08T02:03:07;93670.75;;;16.04;81.14
64402;BME280;50724;42.376;23.768;2023-09-08T02:06:07;93664.97;;;15.94;81.74
64402;BME280;50724;42.376;23.768;2023-09-08T02:09:08;93669.69;;;15.84;81.95
64402;BME280;50724;42.376;23.768;2023-09-08T02:12:12;93667.88;;;15.70;83.31
64402;BME280;50724;42.376;23.768;2023-09-08T02:15:13;93667.34;;;15.74;82.05
64402;BME280;50724;42.376;23.768;2023-09-08T02:18:14;93664.44;;;15.69;82.30
64402;BME280;50724;42.376;23.768;2023-09-08T02:21:24;93669.50;;;15.71;81.93
64402;BME280;50724;42.376;23.768;2023-09-08T02:24:25;93663.44;;;15.70;80.58
64402;BME280;50724;42.376;23.768;2023-09-08T02:27:25;93663.88;;;15.74;80.20
64402;BME280;50724;42.376;23.768;2023-09-08T02:30:26;93661.78;;;15.84;79.64
64402;BME280;50724;42.376;23.768;2023-09-08T02:33:26;93659.22;;;15.91;79.49
64402;BME280;50724;42.376;23.768;2023-09-08T02:36:26;93654.50;;;15.86;79.11
64402;BME280;50724;42.376;23.768;2023-09-08T02:39:27;93652.41;;;15.81;79.47
64402;BME280;50724;42.376;23.768;2023-09-08T02:42:28;93650.97;;;15.79;80.03
64402;BME280;50724;42.376;23.768;2023-09-08T02:45:29;93646.31;;;15.81;80.33
64402;BME280;50724;42.376;23.768;2023-09-08T02:48:29;93652.06;;;15.55;83.23
64402;BME280;50724;42.376;23.768;2023-09-08T02:51:30;93651.13;;;15.34;84.24
64402;BME280;50724;42.376;23.768;2023-09-08T02:54:30;93656.66;;;15.24;85.16
64402;BME280;50724;42.376;23.768;2023-09-08T02:57:30;93641.91;;;15.00;86.33
64402;BME280;50724;42.376;23.768;2023-09-08T03:00:31;93645.22;;;14.80;87.54
64402;BME280;50724;42.376;23.768;2023-09-08T03:03:31;93644.28;;;14.73;88.33
64402;BME280;50724;42.376;23.768;2023-09-08T03:06:34;93643.78;;;14.55;89.80
64402;BME280;50724;42.376;23.768;2023-09-08T03:09:35;93636.31;;;14.43;90.22
64402;BME280;50724;42.376;23.768;2023-09-08T03:12:35;93633.69;;;14.43;90.69
64402;BME280;50724;42.376;23.768;2023-09-08T03:15:36;93642.09;;;14.39;90.72
64402;BME280;50724;42.376;23.768;2023-09-08T03:18:37;93636.69;;;14.32;91.32
64402;BME280;50724;42.376;23.768;2023-09-08T03:21:38;93627.69;;;14.27;91.79
64402;BME280;50724;42.376;23.768;2023-09-08T03:24:38;93630.47;;;14.25;92.30
64402;BME280;50724;42.376;23.768;2023-09-08T03:27:38;93634.75;;;14.26;92.05
64402;BME280;50724;42.376;23.768;2023-09-08T03:30:39;93639.28;;;14.10;94.10
64402;BME280;50724;42.376;23.768;2023-09-08T03:33:39;93632.56;;;14.07;93.86
64402;BME280;50724;42.376;23.768;2023-09-08T03:36:40;93634.69;;;14.12;92.64
64402;BME280;50724;42.376;23.768;2023-09-08T03:39:40;93636.31;;;14.13;93.09
64402;BME280;50724;42.376;23.768;2023-09-08T03:42:41;93636.31;;;14.13;92.51
64402;BME280;50724;42.376;23.768;2023-09-08T03:45:43;93632.69;;;14.14;92.32
64402;BME280;50724;42.376;23.768;2023-09-08T03:48:43;93641.81;;;14.03;92.81
64402;BME280;50724;42.376;23.768;2023-09-08T03:51:43;93638.69;;;14.00;93.75
64402;BME280;50724;42.376;23.768;2023-09-08T03:54:44;93644.56;;;14.10;94.19
64402;BME280;50724;42.376;23.768;2023-09-08T03:57:46;93640.44;;;13.85;94.85
64402;BME280;50724;42.376;23.768;2023-09-08T04:00:46;93639.88;;;13.66;96.35
64402;BME280;50724;42.376;23.768;2023-09-08T04:03:47;93646.03;;;13.82;96.18
64402;BME280;50724;42.376;23.768;2023-09-08T04:06:47;93648.03;;;14.02;96.17
64402;BME280;50724;42.376;23.768;2023-09-08T04:09:48;93648.53;;;14.28;97.33
64402;BME280;50724;42.376;23.768;2023-09-08T04:12:48;93640.34;;;14.31;97.23
64402;BME280;50724;42.376;23.768;2023-09-08T04:15:49;93646.94;;;14.27;95.82
64402;BME280;50724;42.376;23.768;2023-09-08T04:18:49;93651.81;;;14.08;96.79
64402;BME280;50724;42.376;23.768;2023-09-08T04:21:49;93652.63;;;14.08;97.46
64402;BME280;50724;42.376;23.768;2023-09-08T04:24:50;93657.03;;;14.16;97.14
64402;BME280;50724;42.376;23.768;2023-09-08T04:27:50;93659.59;;;14.32;97.41
64402;BME280;50724;42.376;23.768;2023-09-08T04:30:51;93667.22;;;14.87;95.87
64402;BME280;50724;42.376;23.768;2023-09-08T04:33:51;93665.31;;;16.06;90.36
64402;BME280;50724;42.376;23.768;2023-09-08T04:36:53;93662.03;;;17.31;83.06
64402;BME280;50724;42.376;23.768;2023-09-08T04:39:53;93661.88;;;18.48;77.54
64402;BME280;50724;42.376;23.768;2023-09-08T04:42:54;93673.00;;;19.50;72.02
64402;BME280;50724;42.376;23.768;2023-09-08T04:45:54;93674.06;;;20.26;67.89
64402;BME280;50724;42.376;23.768;2023-09-08T04:48:55;93685.81;;;21.25;64.16
64402;BME280;50724;42.376;23.768;2023-09-08T04:51:56;93679.50;;;21.94;60.35
64402;BME280;50724;42.376;23.768;2023-09-08T04:54:56;93687.41;;;22.00;60.21
64402;BME280;50724;42.376;23.768;2023-09-08T04:57:57;93684.03;;;22.66;57.11
64402;BME280;50724;42.376;23.768;2023-09-08T05:00:57;93681.50;;;21.98;57.64
64402;BME280;50724;42.376;23.768;2023-09-08T05:03:59;93687.50;;;21.44;59.72
64402;BME280;50724;42.376;23.768;2023-09-08T05:07:00;93681.50;;;21.98;58.68
64402;BME280;50724;42.376;23.768;2023-09-08T05:10:00;93683.50;;;21.35;60.36
64402;BME280;50724;42.376;23.768;2023-09-08T05:13:01;93686.97;;;20.67;63.18
64402;BME280;50724;42.376;23.768;2023-09-08T05:16:01;93676.88;;;19.60;66.09
64402;BME280;50724;42.376;23.768;2023-09-08T05:19:12;93689.53;;;19.06;69.42
64402;BME280;50724;42.376;23.768;2023-09-08T05:22:15;93692.13;;;18.93;70.81
64402;BME280;50724;42.376;23.768;2023-09-08T05:25:15;93686.75;;;18.47;73.25
64402;BME280;50724;42.376;23.768;2023-09-08T05:28:16;93692.06;;;18.60;73.67
64402;BME280;50724;42.376;23.768;2023-09-08T05:31:16;93696.03;;;18.36;75.54
64402;BME280;50724;42.376;23.768;2023-09-08T05:34:17;93693.06;;;18.05;76.49
64402;BME280;50724;42.376;23.768;2023-09-08T05:37:17;93697.03;;;17.88;77.17
64402;BME280;50724;42.376;23.768;2023-09-08T05:40:18;93691.94;;;17.86;77.10
64402;BME280;50724;42.376;23.768;2023-09-08T05:43:21;93699.00;;;18.14;75.74
64402;BME280;50724;42.376;23.768;2023-09-08T05:46:21;93699.81;;;18.62;73.83
64402;BME280;50724;42.376;23.768;2023-09-08T05:49:21;93701.13;;;18.92;73.08
64402;BME280;50724;42.376;23.768;2023-09-08T05:52:22;93700.31;;;19.04;72.45
64402;BME280;50724;42.376;23.768;2023-09-08T05:55:22;93707.66;;;19.09;72.76
64402;BME280;50724;42.376;23.768;2023-09-08T05:58:23;93705.59;;;18.91;73.08
64402;BME280;50724;42.376;23.768;2023-09-08T06:01:24;93701.94;;;19.05;73.19
64402;BME280;50724;42.376;23.768;2023-09-08T06:04:25;93707.47;;;19.17;73.76
64402;BME280;50724;42.376;23.768;2023-09-08T06:07:25;93701.53;;;19.35;73.38
64402;BME280;50724;42.376;23.768;2023-09-08T06:10:26;93707.66;;;19.35;73.59
64402;BME280;50724;42.376;23.768;2023-09-08T06:13:27;93704.84;;;19.63;73.25
64402;BME280;50724;42.376;23.768;2023-09-08T06:16:27;93700.34;;;19.63;72.85
64402;BME280;50724;42.376;23.768;2023-09-08T06:19:27;93709.94;;;19.71;72.65
64402;BME280;50724;42.376;23.768;2023-09-08T06:22:28;93706.44;;;19.83;72.44
64402;BME280;50724;42.376;23.768;2023-09-08T06:25:28;93713.59;;;19.83;72.78
64402;BME280;50724;42.376;23.768;2023-09-08T06:28:29;93717.06;;;19.83;73.14
64402;BME280;50724;42.376;23.768;2023-09-08T06:31:29;93722.41;;;19.64;74.54
64402;BME280;50724;42.376;23.768;2023-09-08T06:34:29;93727.72;;;19.64;75.01
64402;BME280;50724;42.376;23.768;2023-09-08T06:37:35;93726.03;;;19.96;74.63
64402;BME280;50724;42.376;23.768;2023-09-08T06:40:36;93734.00;;;19.89;74.41
64402;BME280;50724;42.376;23.768;2023-09-08T06:43:37;93732.72;;;20.18;73.89
64402;BME280;50724;42.376;23.768;2023-09-08T06:46:37;93739.09;;;20.04;73.52
64402;BME280;50724;42.376;23.768;2023-09-08T06:49:46;93740.84;;;20.49;71.88
64402;BME280;50724;42.376;23.768;2023-09-08T06:52:49;93740.19;;;20.60;69.62
64402;BME280;50724;42.376;23.768;2023-09-08T06:55:49;93743.66;;;20.98;68.89
64402;BME280;50724;42.376;23.768;2023-09-08T06:58:50;93754.31;;;21.36;68.31
64402;BME280;50724;42.376;23.768;2023-09-08T07:01:50;93747.31;;;21.42;65.62
64402;BME280;50724;42.376;23.768;2023-09-08T07:04:50;93750.19;;;21.96;60.84
64402;BME280;50724;42.376;23.768;2023-09-08T07:07:56;93761.78;;;22.02;58.70
64402;BME280;50724;42.376;23.768;2023-09-08T07:10:57;93755.41;;;21.84;60.19
64402;BME280;50724;42.376;23.768;2023-09-08T07:13:57;93754.81;;;21.51;60.63
64402;BME280;50724;42.376;23.768;2023-09-08T07:16:58;93757.00;;;21.61;59.96
64402;BME280;50724;42.376;23.768;2023-09-08T07:19:59;93760.66;;;21.35;60.48
64402;BME280;50724;42.376;23.768;2023-09-08T07:22:59;93755.22;;;21.23;59.35
64402;BME280;50724;42.376;23.768;2023-09-08T07:25:59;93759.78;;;21.41;59.36
64402;BME280;50724;42.376;23.768;2023-09-08T07:29:00;93759.91;;;21.53;57.38
64402;BME280;50724;42.376;23.768;2023-09-08T07:32:00;93759.94;;;21.77;57.88
64402;BME280;50724;42.376;23.768;2023-09-08T07:35:01;93753.25;;;22.18;54.54
64402;BME280;50724;42.376;23.768;2023-09-08T07:38:01;93757.88;;;22.65;53.53
64402;BME280;50724;42.376;23.768;2023-09-08T07:41:02;93755.91;;;23.08;51.97
64402;BME280;50724;42.376;23.768;2023-09-08T07:44:02;93762.75;;;22.50;52.29
64402;BME280;50724;42.376;23.768;2023-09-08T07:47:03;93756.44;;;22.08;53.20
64402;BME280;50724;42.376;23.768;2023-09-08T07:50:20;93765.97;;;22.16;53.77
64402;BME280;50724;42.376;23.768;2023-09-08T07:53:21;93756.34;;;22.15;53.50
64402;BME280;50724;42.376;23.768;2023-09-08T07:56:31;93756.19;;;22.10;54.66
64402;BME280;50724;42.376;23.768;2023-09-08T07:59:32;93767.03;;;22.33;53.09
64402;BME280;50724;42.376;23.768;2023-09-08T08:02:33;93757.88;;;22.65;53.34
64402;BME280;50724;42.376;23.768;2023-09-08T08:05:33;93755.69;;;22.62;52.11
64402;BME280;50724;42.376;23.768;2023-09-08T08:08:34;93757.66;;;23.14;52.34
64402;BME280;50724;42.376;23.768;2023-09-08T08:11:38;93752.47;;;23.19;51.20
64402;BME280;50724;42.376;23.768;2023-09-08T08:14:39;93754.22;;;22.41;51.35
64402;BME280;50724;42.376;23.768;2023-09-08T08:17:39;93751.19;;;22.92;51.26
64402;BME280;50724;42.376;23.768;2023-09-08T08:20:40;93755.09;;;23.67;49.48
64402;BME280;50724;42.376;23.768;2023-09-08T08:23:40;93760.38;;;23.26;48.50
64402;BME280;50724;42.376;23.768;2023-09-08T08:26:41;93754.78;;;23.46;47.54
64402;BME280;50724;42.376;23.768;2023-09-08T08:29:50;93751.09;;;23.28;47.53
64402;BME280;50724;42.376;23.768;2023-09-08T08:32:51;93754.66;;;23.11;48.03
64402;BME280;50724;42.376;23.768;2023-09-08T08:35:53;93742.47;;;22.85;48.00
64402;BME280;50724;42.376;23.768;2023-09-08T08:38:54;93739.38;;;23.30;48.21
64402;BME280;50724;42.376;23.768;2023-09-08T08:41:55;93742.22;;;22.87;48.03
64402;BME280;50724;42.376;23.768;2023-09-08T08:44:55;93743.94;;;22.81;47.59
64402;BME280;50724;42.376;23.768;2023-09-08T08:47:56;93743.34;;;22.79;46.28
64402;BME280;50724;42.376;23.768;2023-09-08T08:50:57;93748.72;;;23.09;45.91
64402;BME280;50724;42.376;23.768;2023-09-08T08:53:59;93746.13;;;23.02;46.39
64402;BME280;50724;42.376;23.768;2023-09-08T08:57:05;93743.19;;;23.22;45.16
64402;BME280;50724;42.376;23.768;2023-09-08T09:00:10;93742.81;;;23.37;44.81
64402;BME280;50724;42.376;23.768;2023-09-08T09:03:12;93733.47;;;23.69;43.35
64402;BME280;50724;42.376;23.768;2023-09-08T09:06:13;93735.91;;;23.70;43.95
64402;BME280;50724;42.376;23.768;2023-09-08T09:09:14;93739.06;;;23.79;44.64
64402;BME280;50724;42.376;23.768;2023-09-08T09:12:14;93746.94;;;23.33;44.17
64402;BME280;50724;42.376;23.768;2023-09-08T09:15:28;93735.59;;;23.07;44.37
64402;BME280;50724;42.376;23.768;2023-09-08T09:18:31;93735.53;;;22.96;45.62
64402;BME280;50724;42.376;23.768;2023-09-08T09:21:50;93719.81;;;23.36;44.64
64402;BME280;50724;42.376;23.768;2023-09-08T09:24:51;93738.00;;;23.80;43.22
64402;BME280;50724;42.376;23.768;2023-09-08T09:28:00;93734.19;;;23.99;42.58
64402;BME280;50724;42.376;23.768;2023-09-08T09:31:09;93733.03;;;23.95;41.94
64402;BME280;50724;42.376;23.768;2023-09-08T09:34:11;93729.44;;;24.47;41.23
64402;BME280;50724;42.376;23.768;2023-09-08T09:37:11;93729.81;;;24.28;40.71
64402;BME280;50724;42.376;23.768;2023-09-08T09:40:12;93733.06;;;24.18;40.96
64402;BME280;50724;42.376;23.768;2023-09-08T09:43:14;93729.09;;;24.44;40.54
64402;BME280;50724;42.376;23.768;2023-09-08T09:46:15;93726.03;;;24.64;41.19
64402;BME280;50724;42.376;23.768;2023-09-08T09:49:16;93717.41;;;24.73;40.74
64402;BME280;50724;42.376;23.768;2023-09-08T09:52:22;93724.44;;;25.02;40.00
64402;BME280;50724;42.376;23.768;2023-09-08T09:55:23;93725.91;;;25.10;38.79
64402;BME280;50724;42.376;23.768;2023-09-08T09:58:24;93725.63;;;25.23;39.73
64402;BME280;50724;42.376;23.768;2023-09-08T10:01:25;93714.53;;;25.59;39.15
64402;BME280;50724;42.376;23.768;2023-09-08T10:04:27;93705.53;;;25.37;39.53
64402;BME280;50724;42.376;23.768;2023-09-08T10:07:28;93713.56;;;25.37;37.95
64402;BME280;50724;42.376;23.768;2023-09-08T10:10:29;93703.00;;;25.75;39.10
64402;BME280;50724;42.376;23.768;2023-09-08T10:13:39;93709.81;;;25.66;38.28
64402;BME280;50724;42.376;23.768;2023-09-08T10:16:44;93702.28;;;25.07;38.67
64402;BME280;50724;42.376;23.768;2023-09-08T10:19:50;93695.91;;;24.80;40.22
64402;BME280;50724;42.376;23.768;2023-09-08T10:23:02;93696.28;;;25.00;38.69
64402;BME280;50724;42.376;23.768;2023-09-08T10:26:06;93698.75;;;25.18;39.04
64402;BME280;50724;42.376;23.768;2023-09-08T10:29:10;93698.72;;;24.62;38.90
64402;BME280;50724;42.376;23.768;2023-09-08T10:32:10;93696.63;;;24.64;38.89
64402;BME280;50724;42.376;23.768;2023-09-08T10:35:11;93687.72;;;24.75;39.50
64402;BME280;50724;42.376;23.768;2023-09-08T10:44:21;93687.09;;;24.56;38.81
64402;BME280;50724;42.376;23.768;2023-09-08T10:47:25;93684.03;;;24.76;38.32
64402;BME280;50724;42.376;23.768;2023-09-08T10:50:30;93686.09;;;24.85;40.14
64402;BME280;50724;42.376;23.768;2023-09-08T10:53:31;93689.88;;;25.29;38.62
64402;BME280;50724;42.376;23.768;2023-09-08T10:57:01;93688.59;;;25.03;37.46
64402;BME280;50724;42.376;23.768;2023-09-08T11:00:06;93684.50;;;25.29;38.26
64402;BME280;50724;42.376;23.768;2023-09-08T11:03:13;93673.94;;;25.39;37.15
64402;BME280;50724;42.376;23.768;2023-09-08T11:06:16;93671.09;;;25.57;37.08
64402;BME280;50724;42.376;23.768;2023-09-08T11:09:18;93669.88;;;25.65;36.89
64402;BME280;50724;42.376;23.768;2023-09-08T11:12:20;93669.94;;;25.70;36.48
64402;BME280;50724;42.376;23.768;2023-09-08T11:15:22;93658.81;;;25.78;37.14
64402;BME280;50724;42.376;23.768;2023-09-08T11:18:29;93667.91;;;25.60;37.29
64402;BME280;50724;42.376;23.768;2023-09-08T11:21:30;93659.47;;;25.68;37.89
64402;BME280;50724;42.376;23.768;2023-09-08T11:24:34;93649.97;;;25.77;37.35
64402;BME280;50724;42.376;23.768;2023-09-08T11:27:35;93648.94;;;26.17;37.01
64402;BME280;50724;42.376;23.768;2023-09-08T11:30:36;93642.72;;;26.11;37.08
64402;BME280;50724;42.376;23.768;2023-09-08T11:33:36;93640.47;;;25.70;36.62
64402;BME280;50724;42.376;23.768;2023-09-08T11:36:40;93638.28;;;25.83;37.80
64402;BME280;50724;42.376;23.768;2023-09-08T11:39:40;93634.09;;;26.09;37.11
64402;BME280;50724;42.376;23.768;2023-09-08T11:42:43;93624.16;;;25.71;37.58
64402;BME280;50724;42.376;23.768;2023-09-08T11:45:44;93626.31;;;25.91;37.82
64402;BME280;50724;42.376;23.768;2023-09-08T11:48:44;93624.91;;;25.88;37.37
64402;BME280;50724;42.376;23.768;2023-09-08T11:51:45;93624.06;;;26.21;36.95
64402;BME280;50724;42.376;23.768;2023-09-08T11:54:45;93625.88;;;25.99;36.87
64402;BME280;50724;42.376;23.768;2023-09-08T11:57:48;93621.94;;;25.85;37.23
64402;BME280;50724;42.376;23.768;2023-09-08T12:00:50;93625.59;;;25.29;37.63
64402;BME280;50724;42.376;23.768;2023-09-08T12:03:52;93619.97;;;25.31;37.49
64402;BME280;50724;42.376;23.768;2023-09-08T12:06:54;93618.44;;;25.35;39.87
64402;BME280;50724;42.376;23.768;2023-09-08T12:09:55;93624.91;;;25.50;37.53
64402;BME280;50724;42.376;23.768;2023-09-08T12:12:56;93614.06;;;25.28;38.69
64402;BME280;50724;42.376;23.768;2023-09-08T12:16:00;93614.97;;;25.34;39.22
64402;BME280;50724;42.376;23.768;2023-09-08T12:19:00;93604.97;;;25.63;38.89
64402;BME280;50724;42.376;23.768;2023-09-08T12:22:02;93609.13;;;25.54;37.81
64402;BME280;50724;42.376;23.768;2023-09-08T12:25:08;93602.91;;;25.86;38.60
64402;BME280;50724;42.376;23.768;2023-09-08T12:28:08;93607.69;;;26.01;38.26
64402;BME280;50724;42.376;23.768;2023-09-08T12:31:09;93602.56;;;26.00;37.72
64402;BME280;50724;42.376;23.768;2023-09-08T12:34:10;93596.69;;;26.03;38.28
64402;BME280;50724;42.376;23.768;2023-09-08T12:37:13;93594.47;;;26.33;37.66
64402;BME280;50724;42.376;23.768;2023-09-08T12:40:13;93594.63;;;26.48;37.43
64402;BME280;50724;42.376;23.768;2023-09-08T12:43:15;93595.50;;;26.53;37.17
64402;BME280;50724;42.376;23.768;2023-09-08T12:46:17;93589.53;;;26.25;36.22
64402;BME280;50724;42.376;23.768;2023-09-08T12:49:18;93588.78;;;25.91;37.77
64402;BME280;50724;42.376;23.768;2023-09-08T12:52:19;93586.72;;;25.43;38.14
64402;BME280;50724;42.376;23.768;2023-09-08T12:55:19;93586.38;;;25.23;39.22
64402;BME280;50724;42.376;23.768;2023-09-08T12:58:20;93589.91;;;24.95;40.02
64402;BME280;50724;42.376;23.768;2023-09-08T13:01:20;93589.78;;;25.35;40.29
64402;BME280;50724;42.376;23.768;2023-09-08T13:04:21;93592.81;;;25.93;37.71
64402;BME280;50724;42.376;23.768;2023-09-08T13:07:22;93580.38;;;26.21;37.46
64402;BME280;50724;42.376;23.768;2023-09-08T13:10:23;93591.25;;;26.57;36.82
64402;BME280;50724;42.376;23.768;2023-09-08T13:13:23;93582.66;;;26.55;36.99
64402;BME280;50724;42.376;23.768;2023-09-08T13:16:24;93584.31;;;26.61;36.60
64402;BME280;50724;42.376;23.768;2023-09-08T13:19:25;93587.13;;;26.50;36.41
64402;BME280;50724;42.376;23.768;2023-09-08T13:22:25;93578.91;;;26.13;37.13
64402;BME280;50724;42.376;23.768;2023-09-08T13:25:25;93578.94;;;25.97;37.82
64402;BME280;50724;42.376;23.768;2023-09-08T13:28:26;93579.09;;;26.28;37.07
64402;BME280;50724;42.376;23.768;2023-09-08T13:31:26;93578.38;;;26.33;37.89
64402;BME280;50724;42.376;23.768;2023-09-08T13:34:27;93578.44;;;26.00;37.39
64402;BME280;50724;42.376;23.768;2023-09-08T13:37:27;93568.03;;;26.03;38.16
64402;BME280;50724;42.376;23.768;2023-09-08T13:40:28;93575.50;;;26.01;38.25
64402;BME280;50724;42.376;23.768;2023-09-08T13:43:28;93570.50;;;26.26;37.92
64402;BME280;50724;42.376;23.768;2023-09-08T13:46:29;93573.31;;;26.36;37.10
64402;BME280;50724;42.376;23.768;2023-09-08T13:49:29;93576.56;;;26.00;37.66
64402;BME280;50724;42.376;23.768;2023-09-08T13:52:30;93566.88;;;25.77;38.18
64402;BME280;50724;42.376;23.768;2023-09-08T13:55:30;93575.56;;;25.68;38.69
64402;BME280;50724;42.376;23.768;2023-09-08T13:58:30;93572.38;;;25.87;37.79
64402;BME280;50724;42.376;23.768;2023-09-08T14:01:33;93576.44;;;25.90;37.97
64402;BME280;50724;42.376;23.768;2023-09-08T14:04:33;93575.66;;;25.73;37.54
64402;BME280;50724;42.376;23.768;2023-09-08T14:07:34;93572.63;;;26.08;37.33
64402;BME280;50724;42.376;23.768;2023-09-08T14:10:34;93572.34;;;26.47;36.74
64402;BME280;50724;42.376;23.768;2023-09-08T14:13:35;93569.00;;;25.75;37.46
64402;BME280;50724;42.376;23.768;2023-09-08T14:16:35;93569.94;;;25.48;38.21
64402;BME280;50724;42.376;23.768;2023-09-08T14:19:35;93566.41;;;26.02;37.75
64402;BME280;50724;42.376;23.768;2023-09-08T14:22:36;93570.94;;;25.80;38.16
64402;BME280;50724;42.376;23.768;2023-09-08T14:25:36;93559.00;;;26.09;37.31
64402;BME280;50724;42.376;23.768;2023-09-08T14:28:36;93566.41;;;26.02;37.80
64402;BME280;50724;42.376;23.768;2023-09-08T14:31:46;93562.28;;;25.56;38.05
64402;BME280;50724;42.376;23.768;2023-09-08T14:34:48;93564.41;;;25.54;38.75
64402;BME280;50724;42.376;23.768;2023-09-08T14:37:49;93560.00;;;25.65;38.85
64402;BME280;50724;42.376;23.768;2023-09-08T14:41:00;93563.25;;;25.17;38.88
64402;BME280;50724;42.376;23.768;2023-09-08T14:44:00;93559.19;;;24.70;39.68
64402;BME280;50724;42.376;23.768;2023-09-08T14:47:01;93560.59;;;24.72;39.42
64402;BME280;50724;42.376;23.768;2023-09-08T14:50:01;93557.81;;;24.67;40.17
64402;BME280;50724;42.376;23.768;2023-09-08T14:53:03;93558.81;;;25.06;38.97
64402;BME280;50724;42.376;23.768;2023-09-08T14:56:04;93551.06;;;25.59;38.73
64402;BME280;50724;42.376;23.768;2023-09-08T14:59:05;93552.75;;;25.65;37.78
64402;BME280;50724;42.376;23.768;2023-09-08T15:02:07;93549.97;;;25.77;37.52
64402;BME280;50724;42.376;23.768;2023-09-08T15:05:08;93546.03;;;25.63;38.13
64402;BME280;50724;42.376;23.768;2023-09-08T15:08:08;93546.13;;;25.18;39.52
64402;BME280;50724;42.376;23.768;2023-09-08T15:11:09;93553.94;;;24.75;39.63
64402;BME280;50724;42.376;23.768;2023-09-08T15:14:09;93548.72;;;24.51;40.25
64402;BME280;50724;42.376;23.768;2023-09-08T15:17:11;93544.41;;;24.50;39.52
64402;BME280;50724;42.376;23.768;2023-09-08T15:20:12;93544.59;;;24.60;39.81
64402;BME280;50724;42.376;23.768;2023-09-08T15:23:14;93545.22;;;24.51;39.55
64402;BME280;50724;42.376;23.768;2023-09-08T15:26:14;93541.31;;;24.42;39.87
64402;BME280;50724;42.376;23.768;2023-09-08T15:29:24;93538.81;;;24.52;40.31
64402;BME280;50724;42.376;23.768;2023-09-08T15:32:24;93537.19;;;24.51;39.53
64402;BME280;50724;42.376;23.768;2023-09-08T15:35:24;93531.47;;;24.31;40.51
64402;BME280;50724;42.376;23.768;2023-09-08T15:38:25;93533.81;;;24.27;40.76
64402;BME280;50724;42.376;23.768;2023-09-08T15:41:25;93534.47;;;24.34;40.43
64402;BME280;50724;42.376;23.768;2023-09-08T15:44:26;93531.69;;;23.89;41.28
64402;BME280;50724;42.376;23.768;2023-09-08T15:47:26;93531.47;;;23.91;42.45
64402;BME280;50724;42.376;23.768;2023-09-08T15:50:27;93529.00;;;23.89;42.00
64402;BME280;50724;42.376;23.768;2023-09-08T15:53:27;93533.47;;;23.72;42.56
64402;BME280;50724;42.376;23.768;2023-09-08T15:56:28;93530.34;;;23.64;42.51